Archival Weather

Habib Bourguiba Intl

Habib Bourguiba Intl, Tunisia (DTMB)

Report from: Sunday, October 1, 2023 7:00 PM CET
Current time: Saturday, March 2, 2024 10:37 AM CET

Current weather – Weather history – Daily summaries
Weather forecast

Temperature25.0°C (77.0°F)
Dew point19.0°C (66.2°F)
Winds 8 kts (4.1 m/s, 9.2 mph) East (100°)
Visibility6.2 mi. (10 km)
Clouds Few clouds 3,000 ft. (914 m)
Altimeter30.15 in.Hg (1021 mB)
Relative humidity69 %
Density altitude1,197 ft. (365 m)
Flight conditions Visual Meteorological Conditions
Raw dataDTMB 011800Z 10008KT 9999 FEW030 25/19 Q1021
An error has occurred. This application may no longer respond until reloaded. Reload 🗙